Skip Navigation LinksHome page > Weather > Current weather Skip Navigation Links

Current Weather

Rock Co, Janesville, Wis.

For information only: do not use for flight planning or navigation.
Latest weather
Observation time Tuesday, September 28, 2021 5:45 AM CDT
Local time Tuesday, September 28, 2021 6:34 AM CDT
Flight conditions Visual Meteorological Conditions
Winds
Wind speed calm
Visibility 10 mi.
Sky condition
Ceiling unlimited
Sky clear
Temperature 52°F
Dewpoint 52°F
Altimeter 30.00 in.Hg
Derived measurements
Relative humidity 100%
Density altitude 425 ft.
METAR KJVL 281045Z 00000KT 10SM CLR 11/11 A3000

Settings

Location code

InnerDrive.Weather 4.0.6770.0 Release CLR 4.0.30319.42000
Copyright ©2018 Inner Drive Technology. All rights reserved. Portions Copyright ©1986-2018 David Braverman.

Find weather

Site navigation


Skip Navigation Links

Place info

Page info

PayPal - The safer, easier way to pay online!

Return home.

Copyright ©2021 Inner Drive Technology. Purveyors of fine, hand-crafted computer software. Page printed 2021-09-28T11:34:27 UTC.